| time (UTC) | temp C | wind direction | speed KPH | gust KPH | rain 1hr cm | rain 24hr cm | rain mn cm | humidity % | barometer mb |
| 20260507144540 | 13 | 267 | 16.1 | 25.7 | 0.00 | 0.00 | 0.00 | 60 | 1017.9 |
| 20260507143037 | 12 | 269 | 14.5 | 22.5 | 0.00 | 0.00 | 0.00 | 63 | 1018.1 |
| 20260507141534 | 12 | 243 | 14.5 | 25.7 | 0.00 | 0.00 | 0.00 | 67 | 1018.1 |
| 20260507140040 | 11 | 286 | 6.4 | 20.9 | 0.00 | 0.00 | 0.00 | 69 | 1018.2 |
| 20260507134529 | 11 | 269 | 9.7 | 20.9 | 0.00 | 0.00 | 0.00 | 72 | 1018.5 |
| 20260507133023 | 10 | 252 | 8.0 | 14.5 | 0.00 | 0.00 | 0.00 | 75 | 1018.5 |
| 20260507131534 | 10 | 258 | 6.4 | 9.7 | 0.00 | 0.00 | 0.00 | 79 | 1018.6 |
| 20260507130021 | 9 | 235 | 4.8 | 8.0 | 0.00 | 0.00 | 0.00 | 81 | 1018.4 |
| 20260507124522 | 8 | 254 | 1.6 | 6.4 | 0.00 | 0.00 | 0.00 | 83 | 1018.4 |
| 20260507123026 | 8 | 301 | 0.0 | 3.2 | 0.00 | 0.00 | 0.00 | 84 | 1018.4 |
| 20260507121519 | 7 | 301 | 1.6 | 3.2 | 0.00 | 0.00 | 0.00 | 86 | 1018.4 |
| 20260507120028 | 7 | 301 | 1.6 | 3.2 | 0.00 | 0.00 | 0.00 | 87 | 1018.4 |
| 20260507114516 | 7 | 301 | 1.6 | 3.2 | 0.00 | 0.00 | 0.00 | 86 | 1017.9 |
| 20260507113035 | 7 | 301 | 1.6 | 3.2 | 0.00 | 0.00 | 0.00 | 86 | 1018.0 |
| 20260507111513 | 7 | 301 | 0.0 | 1.6 | 0.00 | 0.00 | 0.00 | 84 | 1018.0 |
| 20260507110009 | 7 | 301 | 0.0 | 6.4 | 0.00 | 0.00 | 0.00 | 83 | 1018.0 |
| 20260507104512 | 8 | 301 | 1.6 | 4.8 | 0.00 | 0.00 | 0.00 | 83 | 1018.1 |
| 20260507103006 | 8 | 301 | 1.6 | 8.0 | 0.00 | 0.00 | 0.00 | 82 | 1018.2 |
| 20260507101506 | 8 | 305 | 3.2 | 8.0 | 0.00 | 0.00 | 0.00 | 81 | 1018.3 |
| 20260507100002 | 8 | 293 | 1.6 | 3.2 | 0.00 | 0.00 | 0.00 | 80 | 1018.4 |
| 20260507094620 | 8 | 293 | 1.6 | 6.4 | 0.00 | 0.00 | 0.00 | 79 | 1018.4 |
| 20260507093058 | 8 | 293 | 1.6 | 3.2 | 0.00 | 0.00 | 0.00 | 78 | 1018.3 |
| 20260507091557 | 9 | 293 | 1.6 | 6.4 | 0.00 | 0.00 | 0.00 | 76 | 1018.4 |
| 20260507090056 | 9 | 293 | 1.6 | 6.4 | 0.00 | 0.00 | 0.00 | 75 | 1018.3 |
| 20260507084600 | 10 | 293 | 0.0 | 3.2 | 0.00 | 0.00 | 0.00 | 74 | 1018.4 |
| 20260507083054 | 10 | 293 | 1.6 | 6.4 | 0.00 | 0.00 | 0.00 | 72 | 1018.4 |
| 20260507081553 | 10 | 293 | 1.6 | 6.4 | 0.00 | 0.00 | 0.00 | 72 | 1018.4 |
| 20260507080053 | 10 | 302 | 1.6 | 8.0 | 0.00 | 0.00 | 0.00 | 72 | 1018.6 |
| 20260507074551 | 10 | 280 | 3.2 | 8.0 | 0.00 | 0.00 | 0.00 | 72 | 1018.8 |
| 20260507073048 | 10 | 294 | 3.2 | 8.0 | 0.00 | 0.00 | 0.00 | 74 | 1018.9 |
| 20260507071548 | 10 | 315 | 3.2 | 8.0 | 0.00 | 0.00 | 0.00 | 75 | 1018.9 |
| 20260507070057 | 10 | 263 | 0.0 | 3.2 | 0.00 | 0.00 | 0.00 | 75 | 1019.0 |
| 20260507064548 | 10 | 250 | 1.6 | 4.8 | 0.00 | 0.00 | 0.00 | 75 | 1019.1 |
| 20260507063051 | 10 | 250 | 3.2 | 6.4 | 0.00 | 0.00 | 0.00 | 71 | 1019.2 |
| 20260507061542 | 9 | 281 | 1.6 | 3.2 | 0.00 | 0.00 | 0.00 | 76 | 1019.1 |
| 20260507060044 | 9 | 281 | 0.0 | 3.2 | 0.00 | 0.00 | 0.00 | 75 | 1019.2 |
| 20260507054542 | 9 | 67 | 0.0 | 3.2 | 0.00 | 0.00 | 0.00 | 75 | 1019.3 |
| 20260507053039 | 9 | 67 | 0.0 | 1.6 | 0.00 | 0.00 | 0.00 | 73 | 1019.3 |
| 20260507051537 | 9 | 67 | 0.0 | 3.2 | 0.00 | 0.00 | 0.00 | 71 | 1019.3 |
| 20260507050058 | 9 | 67 | 0.0 | 1.6 | 0.00 | 0.00 | 0.00 | 70 | 1019.1 |
| 20260507044546 | 10 | 67 | 0.0 | 3.2 | 0.00 | 0.00 | 0.00 | 67 | 1019.2 |
| 20260507043033 | 10 | 67 | 1.6 | 3.2 | 0.00 | 0.00 | 0.00 | 69 | 1019.0 |
| 20260507041532 | 10 | 67 | 0.0 | 1.6 | 0.00 | 0.00 | 0.00 | 67 | 1018.9 |
| 20260507040033 | 11 | 67 | 0.0 | 3.2 | 0.00 | 0.00 | 0.00 | 62 | 1018.9 |
| 20260507034536 | 11 | 67 | 0.0 | 3.2 | 0.00 | 0.00 | 0.00 | 62 | 1019.2 |
| 20260507033039 | 11 | 67 | 0.0 | 3.2 | 0.00 | 0.00 | 0.00 | 62 | 1019.0 |
| 20260507031533 | 12 | 5 | 0.0 | 6.4 | 0.00 | 0.00 | 0.00 | 60 | 1018.9 |
| 20260507030036 | 13 | 355 | 0.0 | 3.2 | 0.00 | 0.00 | 0.00 | 53 | 1018.8 |
| 20260507024535 | 13 | 9 | 1.6 | 6.4 | 0.00 | 0.00 | 0.00 | 53 | 1018.7 |
| 20260507023028 | 13 | 16 | 1.6 | 3.2 | 0.00 | 0.00 | 0.00 | 53 | 1018.5 |
| 20260507021544 | 13 | 10 | 0.0 | 8.0 | 0.00 | 0.00 | 0.00 | 54 | 1018.6 |
| 20260507020028 | 13 | 18 | 0.0 | 3.2 | 0.00 | 0.00 | 0.00 | 53 | 1018.4 |
| 20260507014527 | 13 | 5 | 1.6 | 4.8 | 0.00 | 0.00 | 0.00 | 52 | 1018.0 |
| 20260507013033 | 13 | 51 | 3.2 | 8.0 | 0.00 | 0.00 | 0.00 | 51 | 1017.9 |
| 20260507011531 | 13 | 35 | 4.8 | 8.0 | 0.00 | 0.00 | 0.00 | 49 | 1017.8 |
| 20260507010037 | 13 | 46 | 6.4 | 12.9 | 0.00 | 0.00 | 0.00 | 48 | 1017.8 |
| 20260507004524 | 14 | 42 | 8.0 | 16.1 | 0.00 | 0.00 | 0.00 | 47 | 1017.8 |
| 20260507003024 | 14 | 25 | 11.3 | 16.1 | 0.00 | 0.00 | 0.00 | 46 | 1017.7 |
| 20260507001524 | 14 | 35 | 11.3 | 19.3 | 0.00 | 0.00 | 0.00 | 45 | 1017.7 |
| 20260507000027 | 14 | 28 | 6.4 | 14.5 | 0.00 | 0.00 | 0.00 | 44 | 1017.7 |
| 20260506234524 | 15 | 38 | 11.3 | 22.5 | 0.00 | 0.00 | 0.00 | 44 | 1017.4 |
| 20260506233021 | 14 | 45 | 11.3 | 19.3 | 0.00 | 0.00 | 0.00 | 44 | 1017.4 |
| 20260506231525 | 15 | 30 | 11.3 | 22.5 | 0.00 | 0.00 | 0.00 | 42 | 1017.3 |
| 20260506230020 | 16 | 69 | 9.7 | 22.5 | 0.00 | 0.00 | 0.00 | 40 | 1017.2 |
| 20260506224519 | 16 | 56 | 16.1 | 22.5 | 0.00 | 0.00 | 0.00 | 38 | 1017.1 |
| 20260506223018 | 15 | 91 | 14.5 | 22.5 | 0.00 | 0.00 | 0.00 | 41 | 1017.0 |
| 20260506221517 | 16 | 15 | 9.7 | 20.9 | 0.00 | 0.00 | 0.00 | 40 | 1017.0 |
| 20260506220025 | 15 | 64 | 12.9 | 25.7 | 0.00 | 0.00 | 0.00 | 39 | 1017.0 |
| 20260506214516 | 15 | 28 | 16.1 | 32.2 | 0.00 | 0.00 | 0.00 | 39 | 1017.4 |
| 20260506213022 | 15 | 87 | 14.5 | 25.7 | 0.00 | 0.00 | 0.00 | 39 | 1017.2 |
| 20260506211515 | 16 | 25 | 14.5 | 22.5 | 0.00 | 0.00 | 0.00 | 39 | 1017.4 |
| 20260506210014 | 15 | 28 | 11.3 | 24.1 | 0.00 | 0.00 | 0.00 | 38 | 1017.5 |
| 20260506204514 | 15 | 9 | 11.3 | 22.5 | 0.00 | 0.00 | 0.00 | 40 | 1017.7 |
| 20260506203023 | 15 | 84 | 14.5 | 29.0 | 0.00 | 0.00 | 0.00 | 39 | 1017.9 |
| 20260506201512 | 15 | 311 | 6.4 | 25.7 | 0.00 | 0.00 | 0.00 | 40 | 1018.2 |
| 20260506200010 | 14 | 355 | 14.5 | 30.6 | 0.00 | 0.00 | 0.00 | 40 | 1018.5 |
| 20260506194512 | 15 | 77 | 14.5 | 30.6 | 0.00 | 0.00 | 0.00 | 40 | 1018.5 |
| 20260506193012 | 15 | 76 | 14.5 | 24.1 | 0.00 | 0.00 | 0.00 | 40 | 1018.5 |
| 20260506191508 | 14 | 97 | 17.7 | 29.0 | 0.00 | 0.00 | 0.00 | 40 | 1018.5 |
| 20260506190007 | 13 | 146 | 16.1 | 35.4 | 0.00 | 0.00 | 0.00 | 41 | 1018.7 |
| 20260506184504 | 14 | 65 | 11.3 | 32.2 | 0.00 | 0.00 | 0.00 | 45 | 1018.5 |
| 20260506183004 | 13 | 84 | 19.3 | 32.2 | 0.00 | 0.00 | 0.00 | 45 | 1018.9 |
| 20260506181502 | 13 | 33 | 16.1 | 32.2 | 0.00 | 0.00 | 0.00 | 46 | 1019.2 |
| 20260506180100 | 13 | 82 | 17.7 | 32.2 | 0.00 | 0.00 | 0.00 | 46 | 1019.4 |
| 20260506174602 | 13 | 70 | 16.1 | 30.6 | 0.00 | 0.00 | 0.00 | 46 | 1019.4 |
| 20260506173111 | 12 | 82 | 19.3 | 30.6 | 0.00 | 0.00 | 0.00 | 48 | 1019.6 |
| 20260506171554 | 12 | 83 | 19.3 | 40.2 | 0.00 | 0.00 | 0.00 | 51 | 1019.6 |
| 20260506170052 | 12 | 82 | 22.5 | 33.8 | 0.00 | 0.00 | 0.00 | 51 | 1019.6 |
| 20260506164552 | 11 | 62 | 25.7 | 38.6 | 0.00 | 0.00 | 0.00 | 56 | 1019.8 |
| 20260506163052 | 11 | 52 | 19.3 | 33.8 | 0.00 | 0.00 | 0.00 | 60 | 1019.1 |
| 20260506161556 | 12 | 41 | 16.1 | 32.2 | 0.00 | 0.00 | 0.00 | 63 | 1019.4 |
| 20260506160046 | 11 | 78 | 16.1 | 33.8 | 0.00 | 0.00 | 0.00 | 62 | 1019.4 |
| 20260506154542 | 11 | 60 | 17.7 | 30.6 | 0.00 | 0.00 | 0.00 | 60 | 1019.3 |
| 20260506153039 | 11 | 36 | 16.1 | 25.7 | 0.00 | 0.00 | 0.00 | 67 | 1019.3 |
| 20260506151551 | 10 | 84 | 11.3 | 29.0 | 0.00 | 0.00 | 0.00 | 68 | 1019.2 |
| 20260506150034 | 10 | 346 | 9.7 | 19.3 | 0.00 | 0.00 | 0.00 | 70 | 1019.5 |